Time;durP1;ratioP1;P1;durP2;ratioP2;P2;SDS_P1;SDS_P2;PMS_P1;PMS_P2;Temp;Humidity;BMP_temperature;BMP_pressure;BME280_temperature;BME280_humidity;BME280_pressure;Samples;Min_cycle;Max_cycle;Signal;HPM_P1;HPM_P2
2022/09/19 00:01:44;21214.00;0.07;37.37;0.00;0.00;0.62;;;;;15.70;1.00;;;;;;2272282;61;1256;-85
2022/09/19 00:04:13;166397.00;0.55;288.06;0.00;0.00;0.62;;;;;15.40;1.00;;;;;;2272233;61;1056;-85
2022/09/19 00:06:41;0.00;0.00;0.62;0.00;0.00;0.62;;;;;14.60;1.00;;;;;;2272281;61;935;-85
2022/09/19 00:09:12;0.00;0.00;0.62;0.00;0.00;0.62;;;;;14.30;1.00;;;;;;2272183;61;1036;-86
2022/09/19 00:11:40;119917.00;0.40;207.94;0.00;0.00;0.62;;;;;14.60;1.00;;;;;;2272107;61;1924;-85
2022/09/19 00:14:09;116114.00;0.39;201.38;0.00;0.00;0.62;;;;;15.40;1.00;;;;;;2272237;61;1138;-86
2022/09/19 00:16:38;27504.00;0.09;48.26;0.00;0.00;0.62;;;;;15.30;1.00;;;;;;2269752;61;1047;-85
2022/09/19 00:19:08;39307.00;0.13;68.69;0.00;0.00;0.62;;;;;15.20;1.00;;;;;;2268207;61;1082;-86
2022/09/19 00:21:38;65733.00;0.22;114.39;0.00;0.00;0.62;;;;;15.20;1.00;;;;;;2268800;61;1790;-87
2022/09/19 00:26:51;78857.00;0.26;137.06;0.00;0.00;0.62;;;;;15.80;1.00;;;;;;2271538;61;852;-88
2022/09/19 00:29:18;31913.00;0.11;55.89;0.00;0.00;0.62;;;;;16.10;1.00;;;;;;2268158;61;1054;-87
2022/09/19 00:31:46;57618.00;0.19;100.36;0.00;0.00;0.62;;;;;16.30;1.00;;;;;;2268127;61;1923;-87
2022/09/19 00:34:17;0.00;0.00;0.62;0.00;0.00;0.62;;;;;16.30;1.00;;;;;;2268223;61;936;-88
2022/09/19 00:36:45;17176.00;0.06;30.38;0.00;0.00;0.62;;;;;16.40;1.00;;;;;;2268202;61;981;-89
2022/09/19 00:39:15;106890.00;0.36;185.46;0.00;0.00;0.62;;;;;16.40;1.00;;;;;;2270742;61;2178;-87
2022/09/19 00:41:42;70124.00;0.23;121.97;0.00;0.00;0.62;;;;;16.40;1.00;;;;;;2272168;61;1284;-88
2022/09/19 00:44:42;51873.00;0.17;90.43;0.00;0.00;0.62;;;;;16.40;1.00;;;;;;2272141;61;1122;-87
2022/09/19 00:47:13;29054.00;0.10;50.95;0.00;0.00;0.62;;;;;16.60;1.00;;;;;;2272184;61;1153;-86
2022/09/19 00:49:44;5618.00;0.02;10.36;0.00;0.00;0.62;;;;;16.60;1.00;;;;;;2269002;61;1065;-87
2022/09/19 00:52:17;27906.00;0.09;48.96;0.00;0.00;0.62;;;;;16.70;1.00;;;;;;2268749;61;2008;-89
2022/09/19 00:54:47;0.00;0.00;0.62;0.00;0.00;0.62;;;;;16.60;1.00;;;;;;2268806;61;1074;-86
2022/09/19 00:57:17;101639.00;0.34;176.40;0.00;0.00;0.62;;;;;16.40;1.00;;;;;;2268768;61;971;-86
2022/09/19 00:59:48;112077.00;0.37;194.41;0.00;0.00;0.62;;;;;16.60;1.00;;;;;;2271590;61;1549;-87
2022/09/19 01:02:21;171910.00;0.57;297.56;0.00;0.00;0.62;;;;;16.60;1.00;;;;;;2272719;61;1359;-85
2022/09/19 01:04:49;51597.00;0.17;89.95;0.00;0.00;0.62;;;;;17.00;1.00;;;;;;2272841;61;1562;-86
2022/09/19 01:07:28;131467.00;0.44;227.86;0.00;0.00;0.62;;;;;17.10;1.00;;;;;;2272854;61;1035;-86
2022/09/19 01:10:04;39340.00;0.13;68.75;0.00;0.00;0.62;;;;;16.60;1.00;;;;;;2272756;61;2019;-84
2022/09/19 01:13:24;129392.00;0.43;224.28;0.00;0.00;0.62;;;;;16.90;1.00;;;;;;2272753;61;1996;-87
2022/09/19 01:15:59;20848.00;0.07;36.74;0.00;0.00;0.62;;;;;17.00;1.00;;;;;;2272692;61;1626;-85
2022/09/19 01:18:32;15379.00;0.05;27.27;0.00;0.00;0.62;;;;;17.20;1.00;;;;;;2272823;61;1120;-87
2022/09/19 01:24:47;0.00;0.00;0.62;0.00;0.00;0.62;;;;;17.30;1.00;;;;;;2268779;61;691;-87
2022/09/19 01:27:38;16213.00;0.05;28.71;0.00;0.00;0.62;;;;;17.30;1.00;;;;;;2268735;61;1136;-88
2022/09/19 01:30:09;11999.00;0.04;21.41;0.00;0.00;0.62;;;;;17.30;1.00;;;;;;2268733;61;1074;-87
2022/09/19 01:32:43;81277.00;0.27;141.24;0.00;0.00;0.62;;;;;17.40;1.00;;;;;;2268681;61;1998;-87
2022/09/19 01:35:16;0.00;0.00;0.62;0.00;0.00;0.62;;;;;17.50;1.00;;;;;;2268661;61;953;-86
2022/09/19 01:37:48;108367.00;0.36;188.01;0.00;0.00;0.62;;;;;17.40;1.00;;;;;;2268664;61;1754;-87
2022/09/19 01:40:18;3034.00;0.01;5.88;0.00;0.00;0.62;;;;;17.30;1.00;;;;;;2268694;61;1097;-86
2022/09/19 01:42:55;57498.00;0.19;100.15;0.00;0.00;0.62;;;;;17.10;1.00;;;;;;2268584;61;1268;-86
2022/09/19 01:45:27;46275.00;0.15;80.74;0.00;0.00;0.62;;;;;17.30;1.00;;;;;;2268679;61;1109;-86
2022/09/19 01:48:08;55471.00;0.18;96.65;0.00;0.00;0.62;;;;;17.30;1.00;;;;;;2270536;61;1066;-86
2022/09/19 01:51:06;137958.00;0.46;239.05;0.00;0.00;0.62;;;;;17.40;1.00;;;;;;2272712;61;1024;-87
2022/09/19 01:53:49;154564.00;0.52;267.67;0.00;0.00;0.62;;;;;17.60;1.00;;;;;;2272102;61;1224;-86
2022/09/19 01:56:28;10848.00;0.04;19.42;0.00;0.00;0.62;;;;;17.60;1.00;;;;;;2272637;61;1601;-86
2022/09/19 01:59:08;0.00;0.00;0.62;0.00;0.00;0.62;;;;;17.60;1.00;;;;;;2272627;61;1090;-88
2022/09/19 02:01:47;84415.00;0.28;146.66;0.00;0.00;0.62;;;;;17.00;1.00;;;;;;2272648;61;1411;-87
2022/09/19 02:04:22;19220.00;0.06;33.92;0.00;0.00;0.62;;;;;16.90;1.00;;;;;;2272713;61;1050;-87
2022/09/19 02:06:53;175038.00;0.58;302.94;57050.00;0.19;99.38;;;;;16.40;1.00;;;;;;2272674;61;1106;-85
2022/09/19 02:09:29;180010.00;0.60;311.51;0.00;0.00;0.62;;;;;16.40;1.00;;;;;;2272664;61;1023;-87
2022/09/19 02:12:00;0.00;0.00;0.62;0.00;0.00;0.62;;;;;16.30;1.00;;;;;;2272603;61;1993;-87
2022/09/19 02:14:33;75436.00;0.25;131.15;0.00;0.00;0.62;;;;;15.80;1.00;;;;;;2272518;61;1115;-87
2022/09/19 02:17:06;3326.00;0.01;6.38;0.00;0.00;0.62;;;;;15.40;1.00;;;;;;2272556;61;1074;-86
2022/09/19 02:19:37;46399.00;0.15;80.96;0.00;0.00;0.62;;;;;15.70;1.00;;;;;;2272564;61;1089;-87
2022/09/19 02:22:09;69525.00;0.23;120.94;0.00;0.00;0.62;;;;;16.00;1.00;;;;;;2272617;61;1458;-86
2022/09/19 02:24:41;0.00;0.00;0.62;0.00;0.00;0.62;;;;;16.20;1.00;;;;;;2272573;61;1016;-86
2022/09/19 02:27:15;94733.00;0.32;164.48;0.00;0.00;0.62;;;;;16.10;1.00;;;;;;2272506;61;1004;-86
2022/09/19 02:29:48;56650.00;0.19;98.69;0.00;0.00;0.62;;;;;16.10;1.00;;;;;;2272411;61;1677;-87
2022/09/19 02:32:19;98995.00;0.33;171.84;0.00;0.00;0.62;;;;;16.50;1.00;;;;;;2272508;61;2002;-86
2022/09/19 02:34:48;126477.00;0.42;219.25;0.00;0.00;0.62;;;;;16.30;1.00;;;;;;2270194;61;1588;-87
2022/09/19 02:37:23;0.00;0.00;0.62;0.00;0.00;0.62;;;;;16.40;1.00;;;;;;2268543;61;1183;-87
2022/09/19 02:39:58;126526.00;0.42;219.34;0.00;0.00;0.62;;;;;16.40;1.00;;;;;;2268503;61;1006;-87
2022/09/19 02:42:37;57281.00;0.19;99.78;0.00;0.00;0.62;;;;;16.00;1.00;;;;;;2268497;61;1365;-88
2022/09/19 02:45:12;7180.00;0.02;13.06;0.00;0.00;0.62;;;;;15.80;1.00;;;;;;2268495;61;1090;-88
2022/09/19 02:47:51;62454.00;0.21;108.72;0.00;0.00;0.62;;;;;14.90;1.00;;;;;;2268415;61;1120;-86
2022/09/19 02:50:25;54422.00;0.18;94.83;0.00;0.00;0.62;;;;;14.60;1.00;;;;;;2268406;61;1091;-87
2022/09/19 02:52:56;109275.00;0.36;189.58;0.00;0.00;0.62;;;;;14.60;1.00;;;;;;2268372;61;1916;-87
2022/09/19 02:55:27;185577.00;0.62;321.09;0.00;0.00;0.62;;;;;14.40;1.00;;;;;;2268444;61;1059;-86
2022/09/19 02:58:00;152752.00;0.51;264.55;0.00;0.00;0.62;;;;;14.20;1.00;;;;;;2268458;61;1557;-87
2022/09/19 03:00:27;15322.00;0.05;27.17;0.00;0.00;0.62;;;;;14.30;1.00;;;;;;2268391;61;1250;-86
2022/09/19 03:03:01;51572.00;0.17;89.90;0.00;0.00;0.62;;;;;14.70;1.00;;;;;;2268304;61;1266;-85
2022/09/19 03:05:32;0.00;0.00;0.62;0.00;0.00;0.62;;;;;14.80;1.00;;;;;;2268371;61;1067;-86
2022/09/19 03:08:03;94199.00;0.31;163.56;0.00;0.00;0.62;;;;;15.00;1.00;;;;;;2268447;61;1041;-87
2022/09/19 03:10:36;96194.00;0.32;167.00;0.00;0.00;0.62;;;;;15.30;1.00;;;;;;2268413;61;1114;-87
2022/09/19 03:13:06;297664.00;0.99;513.90;22872.00;0.08;40.24;;;;;15.50;1.00;;;;;;2268179;61;2008;-87
2022/09/19 03:15:37;26672.00;0.09;46.82;0.00;0.00;0.62;;;;;15.40;1.00;;;;;;2268340;61;1128;-87
2022/09/19 03:18:09;243655.00;0.81;421.04;0.00;0.00;0.62;;;;;14.90;1.00;;;;;;2268332;61;1027;-86
2022/09/19 03:20:39;109395.00;0.36;189.79;0.00;0.00;0.62;;;;;14.90;1.00;;;;;;2268354;61;1017;-88
2022/09/19 03:23:06;140142.00;0.47;242.82;0.00;0.00;0.62;;;;;15.20;1.00;;;;;;2268340;61;1316;-87
2022/09/19 03:25:33;44645.00;0.15;77.92;0.00;0.00;0.62;;;;;15.40;1.00;;;;;;2268334;61;1029;-87
2022/09/19 03:28:00;94125.00;0.31;163.43;0.00;0.00;0.62;;;;;15.40;1.00;;;;;;2268282;61;899;-87
2022/09/19 03:30:27;84446.00;0.28;146.72;0.00;0.00;0.62;;;;;15.40;1.00;;;;;;2268339;61;1050;-87
2022/09/19 03:32:54;138589.00;0.46;240.14;0.00;0.00;0.62;;;;;15.60;1.00;;;;;;2268283;61;1910;-87
2022/09/19 03:35:22;30727.00;0.10;53.84;0.00;0.00;0.62;;;;;15.80;1.00;;;;;;2268311;61;1019;-87
2022/09/19 03:37:50;166192.00;0.55;287.71;0.00;0.00;0.62;;;;;16.00;1.00;;;;;;2268283;61;1151;-86
2022/09/19 03:40:18;123405.00;0.41;213.96;0.00;0.00;0.62;;;;;15.60;1.00;;;;;;2268309;61;1130;-86
2022/09/19 03:42:45;43060.00;0.14;75.18;0.00;0.00;0.62;;;;;15.70;1.00;;;;;;2268262;61;1392;-86
2022/09/19 03:45:12;0.00;0.00;0.62;0.00;0.00;0.62;;;;;15.80;1.00;;;;;;2268290;61;1096;-86
2022/09/19 03:47:39;20758.00;0.07;36.58;0.00;0.00;0.62;;;;;15.70;1.00;;;;;;2268342;61;1012;-87
2022/09/19 03:50:07;245940.00;0.82;424.97;0.00;0.00;0.62;;;;;15.50;1.00;;;;;;2268150;61;899;-87
2022/09/19 03:52:36;151517.00;0.51;262.42;0.00;0.00;0.62;;;;;15.30;1.00;;;;;;2268203;61;1908;-86
2022/09/19 03:55:02;178638.00;0.60;309.14;0.00;0.00;0.62;;;;;15.10;1.00;;;;;;2268234;61;1483;-87
2022/09/19 03:57:29;105652.00;0.35;183.33;0.00;0.00;0.62;;;;;15.10;1.00;;;;;;2268210;61;1548;-87
2022/09/19 03:59:56;196664.00;0.66;340.18;0.00;0.00;0.62;;;;;14.70;1.00;;;;;;2268190;61;1320;-86
2022/09/19 04:02:23;143401.00;0.48;248.43;0.00;0.00;0.62;;;;;14.10;1.00;;;;;;2268190;61;1384;-87
2022/09/19 04:04:50;306995.00;1.02;529.94;0.00;0.00;0.62;;;;;13.90;1.00;;;;;;2268249;61;1097;-87
2022/09/19 04:07:17;219977.00;0.73;380.30;0.00;0.00;0.62;;;;;13.90;1.00;;;;;;2268147;61;1122;-88
2022/09/19 04:09:45;152529.00;0.51;264.17;0.00;0.00;0.62;;;;;13.80;1.00;;;;;;2268209;61;1105;-87
2022/09/19 04:12:13;119283.00;0.40;206.85;0.00;0.00;0.62;;;;;13.70;1.00;;;;;;2268146;61;1916;-87
2022/09/19 04:14:40;185502.00;0.62;320.96;0.00;0.00;0.62;;;;;13.80;1.00;;;;;;2268167;61;976;-87
2022/09/19 04:17:09;95189.00;0.32;165.27;0.00;0.00;0.62;;;;;14.00;1.00;;;;;;2268234;61;1041;-87
2022/09/19 04:19:38;34155.00;0.11;59.77;0.00;0.00;0.62;;;;;14.40;1.00;;;;;;2268151;61;1118;-88
2022/09/19 04:22:05;129718.00;0.43;224.84;0.00;0.00;0.62;;;;;14.60;1.00;;;;;;2268078;61;1384;-87
2022/09/19 04:24:32;496554.00;1.66;855.89;124564.00;0.42;215.95;;;;;14.70;1.00;;;;;;2268174;61;1024;-89
2022/09/19 04:27:02;89078.00;0.30;154.72;0.00;0.00;0.62;;;;;14.70;1.00;;;;;;2268858;61;934;-86
2022/09/19 04:29:29;160221.00;0.53;277.42;0.00;0.00;0.62;;;;;14.90;1.00;;;;;;2268872;61;1130;-87
2022/09/19 04:32:02;245685.00;0.82;424.53;53429.00;0.18;93.12;;;;;14.70;1.00;;;;;;2268709;61;2022;-87
2022/09/19 04:34:29;118989.00;0.40;206.34;0.00;0.00;0.62;;;;;14.50;1.00;;;;;;2268879;61;1167;-88
2022/09/19 04:36:57;269806.00;0.90;466.01;0.00;0.00;0.62;;;;;14.30;1.00;;;;;;2268591;61;1661;-87
2022/09/19 04:39:24;211874.00;0.71;366.36;0.00;0.00;0.62;;;;;13.80;1.00;;;;;;2268843;61;1054;-87
2022/09/19 04:41:52;163251.00;0.54;282.64;0.00;0.00;0.62;;;;;13.90;1.00;;;;;;2268777;61;1269;-88
2022/09/19 04:44:22;145475.00;0.48;252.01;0.00;0.00;0.62;;;;;13.90;1.00;;;;;;2268894;61;1138;-88
2022/09/19 04:46:50;203119.00;0.68;351.29;0.00;0.00;0.62;;;;;14.20;1.00;;;;;;2268869;61;928;-87
2022/09/19 04:49:17;140215.00;0.47;242.94;0.00;0.00;0.62;;;;;13.90;1.00;;;;;;2268802;61;1255;-87
2022/09/19 04:51:44;330810.00;1.10;570.88;0.00;0.00;0.62;;;;;13.60;1.00;;;;;;2268790;61;1275;-88
2022/09/19 04:54:11;156140.00;0.52;270.39;0.00;0.00;0.62;;;;;13.60;1.00;;;;;;2268728;61;2001;-88
2022/09/19 04:56:39;240523.00;0.80;415.65;14285.00;0.05;25.37;;;;;13.70;1.00;;;;;;2268722;61;1621;-87
2022/09/19 04:59:06;212106.00;0.71;366.76;0.00;0.00;0.62;;;;;13.80;1.00;;;;;;2268670;61;1576;-86
2022/09/19 05:01:34;174674.00;0.58;302.32;0.00;0.00;0.62;;;;;14.30;1.00;;;;;;2268696;61;1245;-87
2022/09/19 05:04:03;501718.00;1.67;864.78;0.00;0.00;0.62;;;;;14.60;1.00;;;;;;2268781;61;1071;-88
2022/09/19 05:06:30;276720.00;0.92;477.90;0.00;0.00;0.62;;;;;14.70;1.00;;;;;;2268726;61;1582;-88
2022/09/19 05:08:58;101284.00;0.34;175.79;0.00;0.00;0.62;;;;;14.40;1.00;;;;;;2268787;61;1019;-88
2022/09/19 05:11:27;175206.00;0.58;303.23;3181.00;0.01;6.13;;;;;14.30;1.00;;;;;;2268622;61;1444;-87
2022/09/19 05:13:54;100354.00;0.33;174.18;0.00;0.00;0.62;;;;;14.40;1.00;;;;;;2268644;61;2003;-88
2022/09/19 05:16:21;36115.00;0.12;63.17;0.00;0.00;0.62;;;;;14.50;1.00;;;;;;2268720;61;1013;-86
2022/09/19 05:18:49;198749.00;0.66;343.77;0.00;0.00;0.62;;;;;14.10;1.00;;;;;;2268737;61;2013;-87
2022/09/19 05:21:17;105153.00;0.35;182.47;0.00;0.00;0.62;;;;;14.20;1.00;;;;;;2268632;61;1379;-88
2022/09/19 05:23:44;180279.00;0.60;311.97;0.00;0.00;0.62;;;;;14.30;1.00;;;;;;2268617;61;1042;-88
2022/09/19 05:26:15;327.00;0.00;1.19;0.00;0.00;0.62;;;;;14.70;1.00;;;;;;2268574;61;1070;-87
2022/09/19 05:28:42;203325.00;0.68;351.65;0.00;0.00;0.62;;;;;15.00;1.00;;;;;;2268579;61;1639;-86
2022/09/19 05:31:09;82453.00;0.27;143.27;0.00;0.00;0.62;;;;;15.20;1.00;;;;;;2268570;61;1335;-87
2022/09/19 05:33:36;239194.00;0.80;413.36;0.00;0.00;0.62;;;;;15.30;1.00;;;;;;2268563;61;1997;-86
2022/09/19 05:36:06;238581.00;0.80;412.31;0.00;0.00;0.62;;;;;15.40;1.00;;;;;;2268488;61;2677;-86
2022/09/19 05:38:34;196548.00;0.66;339.98;0.00;0.00;0.62;;;;;15.30;1.00;;;;;;2268528;61;2169;-86
2022/09/19 05:41:03;68197.00;0.23;118.64;0.00;0.00;0.62;;;;;14.70;1.00;;;;;;2268561;61;1246;-86
2022/09/19 05:43:30;347697.00;1.16;599.90;0.00;0.00;0.62;;;;;14.30;1.00;;;;;;2268506;61;1687;-86
2022/09/19 05:45:58;277845.00;0.93;479.83;0.00;0.00;0.62;;;;;14.20;1.00;;;;;;2268614;61;991;-88
2022/09/19 05:48:26;483185.00;1.61;832.88;67493.00;0.22;117.43;;;;;14.00;1.00;;;;;;2268556;61;1574;-88
2022/09/19 05:50:54;330545.00;1.10;570.42;16577.00;0.06;29.34;;;;;14.00;1.00;;;;;;2268450;61;1555;-87
2022/09/19 05:56:08;263772.00;0.88;455.63;0.00;0.00;0.62;;;;;14.40;1.00;;;;;;2268528;61;663;-87
2022/09/19 05:58:37;0.00;0.00;0.62;0.00;0.00;0.62;;;;;14.70;1.00;;;;;;2268408;61;1075;-86
2022/09/19 06:01:05;292524.00;0.98;505.07;27087.00;0.09;47.54;;;;;15.00;1.00;;;;;;2268574;61;1395;-87
2022/09/19 06:03:33;281294.00;0.94;485.76;0.00;0.00;0.62;;;;;15.30;1.00;;;;;;2268536;61;1123;-87
2022/09/19 06:06:01;96782.00;0.32;168.02;0.00;0.00;0.62;;;;;15.40;1.00;;;;;;2268514;61;1047;-87
2022/09/19 06:08:29;171942.00;0.57;297.61;0.00;0.00;0.62;;;;;15.40;1.00;;;;;;2268568;61;1573;-87
2022/09/19 06:11:01;23345.00;0.08;41.06;0.00;0.00;0.62;;;;;15.40;1.00;;;;;;2268479;61;1270;-86
2022/09/19 06:14:13;163702.00;0.55;283.42;0.00;0.00;0.62;;;;;15.60;1.00;;;;;;2268465;61;1919;-86
2022/09/19 06:16:17;163847.00;0.55;283.67;0.00;0.00;0.62;;;;;15.80;1.00;;;;;;2268388;61;1048;-86
2022/09/19 06:18:44;43403.00;0.14;75.78;0.00;0.00;0.62;;;;;15.90;1.00;;;;;;2268439;61;1089;-86
2022/09/19 06:21:12;186386.00;0.62;322.49;0.00;0.00;0.62;;;;;16.10;1.00;;;;;;2268450;61;1410;-85
2022/09/19 06:23:40;113085.00;0.38;196.15;0.00;0.00;0.62;;;;;16.00;1.00;;;;;;2268486;61;1110;-86
2022/09/19 06:26:07;391056.00;1.30;674.43;14395.00;0.05;25.56;;;;;16.00;1.00;;;;;;2268433;61;1453;-86
2022/09/19 06:28:34;486525.00;1.62;838.63;88717.00;0.30;154.09;;;;;16.40;1.00;;;;;;2268487;61;1778;-86
2022/09/19 06:31:03;52517.00;0.18;91.54;0.00;0.00;0.62;;;;;16.10;1.00;;;;;;2268470;61;1399;-85
2022/09/19 06:33:30;273754.00;0.91;472.80;0.00;0.00;0.62;;;;;15.70;1.00;;;;;;2268297;61;2006;-87
2022/09/19 06:35:59;168578.00;0.56;291.82;0.00;0.00;0.62;;;;;15.50;1.00;;;;;;2268497;61;1101;-85
2022/09/19 06:38:26;196776.00;0.66;340.37;32858.00;0.11;57.53;;;;;15.50;1.00;;;;;;2268420;61;1132;-87
2022/09/19 06:43:27;535713.00;1.79;923.34;0.00;0.00;0.62;;;;;15.30;1.00;;;;;;2274041;61;1403;-86
2022/09/19 06:45:54;381709.00;1.27;658.36;0.00;0.00;0.62;;;;;14.80;1.00;;;;;;2272283;61;1496;-85
2022/09/19 06:48:22;125526.00;0.42;217.61;0.00;0.00;0.62;;;;;15.00;1.00;;;;;;2272261;61;1019;-87
2022/09/19 06:50:50;112105.00;0.37;194.46;0.00;0.00;0.62;;;;;15.20;1.00;;;;;;2272322;61;1450;-85
2022/09/19 06:53:18;177403.00;0.59;307.02;0.00;0.00;0.62;;;;;14.90;1.00;;;;;;2272360;61;1916;-87
2022/09/19 06:55:45;20544.00;0.07;36.21;0.00;0.00;0.62;;;;;14.90;1.00;;;;;;2272366;61;1153;-86
2022/09/19 06:58:13;176264.00;0.59;305.06;23577.00;0.08;41.46;;;;;15.10;1.00;;;;;;2272475;61;1091;-87
2022/09/19 07:00:44;41542.00;0.14;72.56;0.00;0.00;0.62;;;;;15.30;1.00;;;;;;2270735;61;1006;-87
2022/09/19 07:03:14;271085.00;0.90;468.21;0.00;0.00;0.62;;;;;15.20;1.00;;;;;;2268134;61;1442;-87
2022/09/19 07:05:42;197102.00;0.66;340.94;0.00;0.00;0.62;;;;;15.60;1.00;;;;;;2268282;61;2198;-86
2022/09/19 07:08:11;336702.00;1.12;581.01;81855.00;0.27;142.24;;;;;15.70;1.00;;;;;;2268327;61;1142;-86
2022/09/19 07:10:40;56328.00;0.19;98.13;0.00;0.00;0.62;;;;;15.80;1.00;;;;;;2268370;61;1103;-87
2022/09/19 07:13:09;239191.00;0.80;413.36;0.00;0.00;0.62;;;;;16.00;1.00;;;;;;2268260;61;1923;-87
2022/09/19 07:15:37;253001.00;0.84;437.11;0.00;0.00;0.62;;;;;16.20;1.00;;;;;;2268323;61;1570;-86
2022/09/19 07:18:10;184233.00;0.61;318.78;43887.00;0.15;76.61;;;;;16.10;1.00;;;;;;2268305;61;1419;-85
2022/09/19 07:20:38;292523.00;0.98;505.07;0.00;0.00;0.62;;;;;15.90;1.00;;;;;;2268274;61;2267;-86
2022/09/19 07:23:08;326011.00;1.09;562.63;0.00;0.00;0.62;;;;;16.20;1.00;;;;;;2268279;61;1569;-87
2022/09/19 07:25:35;242408.00;0.81;418.89;0.00;0.00;0.62;;;;;16.10;1.00;;;;;;2268209;61;1573;-86
2022/09/19 07:28:04;301568.00;1.01;520.62;76299.00;0.25;132.64;;;;;15.80;1.00;;;;;;2268261;61;1732;-86
2022/09/19 07:30:32;312763.00;1.04;539.86;0.00;0.00;0.62;;;;;15.60;1.00;;;;;;2268250;61;1102;-85
2022/09/19 07:33:02;47792.00;0.16;83.37;0.00;0.00;0.62;;;;;15.30;1.00;;;;;;2268252;61;2006;-86
2022/09/19 07:35:37;269052.00;0.90;464.71;47017.00;0.16;82.03;;;;;14.90;1.00;;;;;;2268253;61;1590;-85
2022/09/19 07:38:04;195394.00;0.65;337.99;0.00;0.00;0.62;;;;;15.20;1.00;;;;;;2268228;61;1602;-86
2022/09/19 07:40:34;379739.00;1.27;654.98;0.00;0.00;0.62;;;;;15.50;1.00;;;;;;2268306;61;975;-86
2022/09/19 07:43:06;450919.00;1.50;777.36;111436.00;0.37;193.31;;;;;15.40;1.00;;;;;;2268099;61;1566;-86
2022/09/19 07:45:36;414789.00;1.38;715.23;113812.00;0.38;197.41;;;;;15.20;1.00;;;;;;2268172;61;1451;-86
2022/09/19 07:48:04;381383.00;1.27;657.80;89616.00;0.30;155.64;;;;;15.20;1.00;;;;;;2268146;61;1446;-87
2022/09/19 07:50:35;289918.00;0.97;500.59;80068.00;0.27;139.15;;;;;15.30;1.00;;;;;;2268227;61;1441;-85
2022/09/19 07:55:53;69214.00;0.23;120.40;0.00;0.00;0.62;;;;;15.70;1.00;;;;;;2268216;61;1337;-87
2022/09/19 07:58:25;290064.00;0.97;500.84;18136.00;0.06;32.04;;;;;15.80;1.00;;;;;;2268201;61;1640;-86
2022/09/19 08:00:53;347953.00;1.16;600.34;53144.00;0.18;92.62;;;;;15.60;1.00;;;;;;2268129;61;1294;-87
2022/09/19 08:03:21;390716.00;1.30;673.85;7326.00;0.02;13.32;;;;;15.70;1.00;;;;;;2268213;61;1082;-86
2022/09/19 08:05:54;228565.00;0.76;395.08;0.00;0.00;0.62;;;;;15.90;1.00;;;;;;2268090;61;882;-87
2022/09/19 08:08:27;520840.00;1.74;897.71;118264.00;0.39;205.09;;;;;16.40;1.00;;;;;;2268073;61;1482;-86
2022/09/19 08:11:01;449491.00;1.50;774.91;77629.00;0.26;134.94;;;;;16.40;1.00;;;;;;2268045;61;1587;-86
2022/09/19 08:13:30;192930.00;0.64;333.75;71498.00;0.24;124.35;;;;;16.60;1.00;;;;;;2268196;61;1916;-85
2022/09/19 08:15:58;386725.00;1.29;666.99;84011.00;0.28;145.97;;;;;16.50;1.00;;;;;;2268165;61;1148;-86
2022/09/19 08:18:27;501454.00;1.67;864.33;90111.00;0.30;156.50;;;;;16.80;1.00;;;;;;2268135;61;1155;-84
2022/09/19 08:20:57;446010.00;1.49;768.92;51041.00;0.17;88.99;;;;;16.70;1.00;;;;;;2268056;61;1564;-86
2022/09/19 08:23:35;425432.00;1.42;733.53;75521.00;0.25;131.30;;;;;17.00;1.00;;;;;;2268118;61;1597;-85
2022/09/19 08:26:02;586145.00;1.95;1010.30;69640.00;0.23;121.14;;;;;17.30;1.00;;;;;;2268164;61;952;-85
2022/09/19 08:28:30;820272.00;2.73;1416.50;101020.00;0.34;175.33;;;;;17.60;1.00;;;;;;2268182;61;1138;-86
2022/09/19 08:30:59;684585.00;2.28;1180.52;88955.00;0.30;154.50;;;;;17.90;1.00;;;;;;2268045;61;1646;-85
2022/09/19 08:33:27;455794.00;1.52;785.75;68381.00;0.23;118.96;;;;;17.30;1.00;;;;;;2268097;61;1924;-85
2022/09/19 08:35:57;843852.00;2.81;1457.71;89911.00;0.30;156.15;;;;;17.30;1.00;;;;;;2267985;61;1591;-85
2022/09/19 08:38:24;581807.00;1.94;1002.82;23762.00;0.08;41.78;;;;;17.50;1.00;;;;;;2268109;61;1051;-86
2022/09/19 08:41:21;524833.00;1.75;904.59;8067.00;0.03;14.60;;;;;17.60;1.00;;;;;;2267905;61;1454;-85
2022/09/19 08:43:57;414970.00;1.38;715.54;67284.00;0.22;117.07;;;;;17.80;1.00;;;;;;2268044;61;1379;-86
2022/09/19 08:46:40;194591.00;0.65;336.61;0.00;0.00;0.62;;;;;17.60;1.00;;;;;;2268035;61;1115;-86
2022/09/19 08:49:14;703589.00;2.35;1213.46;0.00;0.00;0.62;;;;;17.70;1.00;;;;;;2268003;61;1593;-86
2022/09/19 08:51:55;304169.00;1.01;525.09;64654.00;0.22;112.52;;;;;17.90;1.00;;;;;;2267898;61;1620;-85
2022/09/19 08:54:30;124145.00;0.41;215.23;0.00;0.00;0.62;;;;;18.10;1.00;;;;;;2268057;61;1919;-85
2022/09/19 08:57:01;343787.00;1.15;593.18;46562.00;0.16;81.24;;;;;18.30;1.00;;;;;;2268036;61;1545;-86
2022/09/19 08:59:34;551234.00;1.84;950.09;197502.00;0.66;341.62;;;;;18.10;1.00;;;;;;2268079;61;1581;-87
2022/09/19 09:02:26;348821.00;1.16;601.83;715.00;0.00;1.86;;;;;18.30;1.00;;;;;;2268004;61;1607;-85
2022/09/19 09:04:54;236510.00;0.79;408.75;0.00;0.00;0.62;;;;;18.20;1.00;;;;;;2268057;61;1190;-86
2022/09/19 09:07:38;299407.00;1.00;516.90;0.00;0.00;0.62;;;;;18.20;1.00;;;;;;2268054;61;1126;-84
2022/09/19 09:10:24;334983.00;1.12;578.05;6439.00;0.02;11.78;;;;;18.60;1.00;;;;;;2268039;61;1044;-86
2022/09/19 09:13:05;200806.00;0.67;347.31;0.00;0.00;0.62;;;;;18.80;1.00;;;;;;2268632;61;1343;-85
2022/09/19 09:15:48;196927.00;0.66;340.63;0.00;0.00;0.62;;;;;18.50;1.00;;;;;;2268689;61;1934;-87
2022/09/19 09:18:49;190566.00;0.64;329.68;0.00;0.00;0.62;;;;;18.20;1.00;;;;;;2268795;61;1122;-85
2022/09/19 09:21:28;457086.00;1.52;787.97;84754.00;0.28;147.25;;;;;18.10;1.00;;;;;;2268682;61;1813;-86
2022/09/19 09:24:08;128301.00;0.43;222.40;0.00;0.00;0.62;;;;;18.00;1.00;;;;;;2268676;61;881;-85
2022/09/19 09:26:43;0.00;0.00;0.62;0.00;0.00;0.62;;;;;18.30;1.00;;;;;;2268693;61;1573;-85
2022/09/19 09:29:21;0.00;0.00;0.62;0.00;0.00;0.62;;;;;18.40;1.00;;;;;;2268736;61;964;-85
2022/09/19 09:31:54;96360.00;0.32;167.29;0.00;0.00;0.62;;;;;18.60;1.00;;;;;;2268647;61;1561;-84
2022/09/19 09:34:28;16067.00;0.05;28.46;0.00;0.00;0.62;;;;;18.50;1.00;;;;;;2268673;61;1912;-86
2022/09/19 09:37:03;41527.00;0.14;72.53;0.00;0.00;0.62;;;;;18.30;1.00;;;;;;2268744;61;896;-85
2022/09/19 09:39:59;130535.00;0.44;226.25;0.00;0.00;0.62;;;;;18.40;1.00;;;;;;2268626;61;1464;-85
2022/09/19 09:42:33;96448.00;0.32;167.44;0.00;0.00;0.62;;;;;18.70;1.00;;;;;;2268532;61;1466;-85
2022/09/19 09:45:12;44130.00;0.15;77.03;0.00;0.00;0.62;;;;;18.70;1.00;;;;;;2268685;61;1034;-85
2022/09/19 09:47:49;259480.00;0.86;448.25;47236.00;0.16;82.41;;;;;18.80;1.00;;;;;;2268538;61;1035;-84
2022/09/19 09:50:43;38442.00;0.13;67.19;0.00;0.00;0.62;;;;;18.50;1.00;;;;;;2268640;61;1110;-85
2022/09/19 09:53:21;236264.00;0.79;408.32;65777.00;0.22;114.46;;;;;18.40;1.00;;;;;;2271388;61;1751;-84
2022/09/19 09:56:16;263078.00;0.88;454.44;69002.00;0.23;120.04;;;;;18.30;1.00;;;;;;2272585;61;1924;-85
2022/09/19 09:59:00;446301.00;1.49;769.42;66100.00;0.22;115.02;;;;;18.70;1.00;;;;;;2272620;61;1442;-84
2022/09/19 10:04:32;546123.00;1.82;941.28;163832.00;0.55;283.64;;;;;19.00;1.00;;;;;;2268637;61;748;-85
2022/09/19 10:07:11;334575.00;1.12;577.35;78528.00;0.26;136.49;;;;;19.00;1.00;;;;;;2268481;61;1573;-86
2022/09/19 10:09:44;286920.00;0.96;495.43;68887.00;0.23;119.84;;;;;19.20;1.00;;;;;;2268577;61;1106;-85
2022/09/19 10:12:23;313818.00;1.05;541.67;69277.00;0.23;120.51;;;;;19.00;1.00;;;;;;2268528;61;1434;-86
2022/09/19 10:14:58;129592320.00;431.97;88183496.00;66186.00;0.22;115.17;;;;;19.00;1.00;;;;;;2268529;61;1987;-84
2022/09/19 10:17:28;597744.00;1.99;1030.32;99547.00;0.33;172.79;;;;;19.00;1.00;;;;;;2268497;61;1508;-85
2022/09/19 10:20:00;507068.00;1.69;873.99;91308.00;0.30;158.57;;;;;19.10;1.00;;;;;;2268398;61;1434;-85
2022/09/19 10:22:27;535130.00;1.78;922.33;70242.00;0.23;122.18;;;;;19.20;1.00;;;;;;2268373;61;1374;-85
2022/09/19 10:24:58;397676.00;1.33;685.81;67525.00;0.23;117.48;;;;;19.10;1.00;;;;;;2268431;61;1591;-86
2022/09/19 10:27:38;344933.00;1.15;595.15;79571.00;0.27;138.30;;;;;18.60;1.00;;;;;;2268570;61;1093;-85
2022/09/19 10:30:18;457990.00;1.53;789.53;71645.00;0.24;124.60;;;;;18.60;1.00;;;;;;2268514;61;2222;-86
2022/09/19 10:32:47;406598.00;1.36;701.15;69685.00;0.23;121.22;;;;;18.50;1.00;;;;;;2268503;61;1318;-85
2022/09/19 10:35:26;568860.00;1.90;980.48;100714.00;0.34;174.80;;;;;18.80;1.00;;;;;;2268366;61;1915;-85